DERMI EDXW-EDXW
Flight info
| Callsign | DERMI |
|---|---|
| Flight time | 0h 11m |
| Altitude | 2600 |
| Route | |
| Aircraft | P28A |
Departure
| Time | 2026-05-05 13:22 |
|---|---|
| Airport | Westerland Sylt Airport (EDXW) |
Arrival
| Time | 2026-05-05 13:33 |
|---|---|
| Airport | Westerland Sylt Airport (EDXW) |
| Time | Latitude | Longitude | Altitude | Speed | Heading |
|---|---|---|---|---|---|
| 2026-05-05 13:16 | 54.91349 | 8.32493 | 23 ft | 8 kts | 195° |
| 2026-05-05 13:17 | 54.91264 | 8.32551 | 23 ft | 17 kts | 160° |
| 2026-05-05 13:17 | 54.91158 | 8.32700 | 23 ft | 17 kts | 122° |
| 2026-05-05 13:17 | 54.91076 | 8.32873 | 25 ft | 16 kts | 131° |
| 2026-05-05 13:17 | 54.90994 | 8.33029 | 26 ft | 16 kts | 132° |
| 2026-05-05 13:18 | 54.90893 | 8.33161 | 26 ft | 18 kts | 154° |
| 2026-05-05 13:18 | 54.90750 | 8.33222 | 25 ft | 20 kts | 176° |
| 2026-05-05 13:18 | 54.90601 | 8.33242 | 23 ft | 21 kts | 179° |
| 2026-05-05 13:18 | 54.90448 | 8.33305 | 23 ft | 21 kts | 155° |
| 2026-05-05 13:19 | 54.90328 | 8.33482 | 22 ft | 20 kts | 125° |
| 2026-05-05 13:19 | 54.90261 | 8.33738 | 21 ft | 23 kts | 99° |
| 2026-05-05 13:19 | 54.90236 | 8.34043 | 23 ft | 21 kts | 95° |
| 2026-05-05 13:19 | 54.90250 | 8.34267 | 25 ft | 19 kts | 69° |
| 2026-05-05 13:20 | 54.90320 | 8.34487 | 26 ft | 20 kts | 49° |
| 2026-05-05 13:20 | 54.90429 | 8.34668 | 28 ft | 17 kts | 39° |
| 2026-05-05 13:20 | 54.90511 | 8.34799 | 29 ft | 12 kts | 43° |
| 2026-05-05 13:20 | 54.90560 | 8.34880 | 30 ft | 10 kts | 38° |
| 2026-05-05 13:21 | 54.90610 | 8.34928 | 29 ft | 6 kts | 329° |
| 2026-05-05 13:21 | 54.90700 | 8.34818 | 30 ft | 41 kts | 324° |
| 2026-05-05 13:21 | 54.91041 | 8.34388 | 133 ft | 63 kts | 322° |
| 2026-05-05 13:21 | 54.91424 | 8.33826 | 413 ft | 72 kts | 320° |
| 2026-05-05 13:22 | 54.91809 | 8.33134 | 676 ft | 84 kts | 316° |
| 2026-05-05 13:22 | 54.92163 | 8.32277 | 901 ft | 99 kts | 291° |
| 2026-05-05 13:22 | 54.92248 | 8.31106 | 1287 ft | 95 kts | 279° |
| 2026-05-05 13:22 | 54.92273 | 8.29905 | 1509 ft | 106 kts | 280° |
| 2026-05-05 13:23 | 54.92341 | 8.28684 | 1795 ft | 102 kts | 281° |
| 2026-05-05 13:23 | 54.92373 | 8.27380 | 1907 ft | 110 kts | 279° |
| 2026-05-05 13:23 | 54.92487 | 8.26116 | 2088 ft | 110 kts | 283° |
| 2026-05-05 13:23 | 54.92579 | 8.24753 | 2161 ft | 119 kts | 282° |
| 2026-05-05 13:24 | 54.92788 | 8.23415 | 2275 ft | 114 kts | 313° |
| 2026-05-05 13:24 | 54.93438 | 8.22829 | 2223 ft | 111 kts | 0° |
| 2026-05-05 13:24 | 54.94130 | 8.23129 | 2100 ft | 100 kts | 33° |
| 2026-05-05 13:24 | 54.94604 | 8.23789 | 2070 ft | 74 kts | 40° |
| 2026-05-05 13:25 | 54.94883 | 8.24365 | 2059 ft | 53 kts | 55° |
| 2026-05-05 13:25 | 54.94828 | 8.24868 | 1633 ft | 103 kts | 205° |
| 2026-05-05 13:25 | 54.94517 | 8.23711 | 1406 ft | 113 kts | 249° |
| 2026-05-05 13:25 | 54.94143 | 8.22651 | 1782 ft | 90 kts | 254° |
| 2026-05-05 13:26 | 54.94093 | 8.21443 | 1937 ft | 95 kts | 291° |
| 2026-05-05 13:26 | 54.94455 | 8.20545 | 2037 ft | 88 kts | 330° |
| 2026-05-05 13:26 | 54.95002 | 8.20401 | 2060 ft | 82 kts | 22° |
| 2026-05-05 13:26 | 54.95327 | 8.21164 | 2077 ft | 77 kts | 64° |
| 2026-05-05 13:27 | 54.95434 | 8.21925 | 2076 ft | 55 kts | 75° |
| 2026-05-05 13:27 | 54.95272 | 8.22423 | 1543 ft | 114 kts | 191° |
| 2026-05-05 13:27 | 54.94648 | 8.21761 | 1410 ft | 102 kts | 204° |
| 2026-05-05 13:27 | 54.94323 | 8.21922 | 1431 ft | 91 kts | 331° |
| 2026-05-05 13:28 | 54.94630 | 8.21210 | 1410 ft | 81 kts | 36° |
| 2026-05-05 13:28 | 54.94893 | 8.22039 | 1665 ft | 69 kts | 51° |
| 2026-05-05 13:28 | 54.95145 | 8.22683 | 1901 ft | 63 kts | 47° |
| 2026-05-05 13:28 | 54.95428 | 8.23322 | 1996 ft | 76 kts | 51° |
| 2026-05-05 13:29 | 54.95665 | 8.24064 | 2018 ft | 63 kts | 63° |
| 2026-05-05 13:29 | 54.95756 | 8.24674 | 1888 ft | 65 kts | 86° |
| 2026-05-05 13:29 | 54.96022 | 8.24273 | 1145 ft | 88 kts | 336° |
| 2026-05-05 13:29 | 54.96544 | 8.23915 | 1234 ft | 76 kts | 344° |
| 2026-05-05 13:30 | 54.96708 | 8.24400 | 1196 ft | 85 kts | 153° |
| 2026-05-05 13:30 | 54.96124 | 8.24572 | 1425 ft | 88 kts | 139° |
| 2026-05-05 13:30 | 54.95862 | 8.24903 | 1495 ft | 99 kts | 135° |
| 2026-05-05 13:30 | 54.95509 | 8.25434 | 1625 ft | 107 kts | 127° |
| 2026-05-05 13:31 | 54.95079 | 8.26442 | 1925 ft | 99 kts | 117° |
| 2026-05-05 13:31 | 54.94687 | 8.27451 | 2060 ft | 108 kts | 121° |
| 2026-05-05 13:31 | 54.94080 | 8.28134 | 2266 ft | 115 kts | 159° |
| 2026-05-05 13:31 | 54.93288 | 8.28263 | 2521 ft | 110 kts | 175° |
| 2026-05-05 13:32 | 54.92475 | 8.28237 | 2202 ft | 129 kts | 182° |
| 2026-05-05 13:32 | 54.91616 | 8.28160 | 1816 ft | 128 kts | 191° |
| 2026-05-05 13:32 | 54.91287 | 8.27072 | 1485 ft | 106 kts | 300° |
| 2026-05-05 13:32 | 54.91754 | 8.26051 | 1509 ft | 107 kts | 317° |
| 2026-05-05 13:33 | 54.92194 | 8.25218 | 1604 ft | 80 kts | 311° |
| 2026-05-05 13:33 | 54.91984 | 8.24971 | 1123 ft | 142 kts | 161° |
| 2026-05-05 13:33 | 54.91364 | 8.25369 | 1452 ft | 29 kts | 89° |
| 2026-05-05 13:33 | 54.91812 | 8.25390 | 455 ft | 102 kts | 14° |
| 2026-05-05 13:34 | 54.92389 | 8.25791 | 799 ft | 86 kts | 15° |
| 2026-05-05 13:34 | 54.92760 | 8.25991 | 909 ft | 88 kts | 12° |
| 2026-05-05 13:34 | 54.93341 | 8.26251 | 1173 ft | 82 kts | 4° |
| 2026-05-05 13:34 | 54.93809 | 8.25806 | 1379 ft | 88 kts | 310° |
| 2026-05-05 13:35 | 54.94137 | 8.24990 | 1376 ft | 71 kts | 313° |
| 2026-05-05 13:35 | 54.94353 | 8.24415 | 1353 ft | 52 kts | 319° |
| 2026-05-05 13:35 | 54.94784 | 8.24119 | 1007 ft | 81 kts | 342° |
| 2026-05-05 13:35 | 54.95304 | 8.23729 | 1228 ft | 83 kts | 334° |
| 2026-05-05 13:36 | 54.95754 | 8.23174 | 1481 ft | 82 kts | 336° |
| 2026-05-05 13:36 | 54.96270 | 8.23213 | 1713 ft | 80 kts | 30° |
| 2026-05-05 13:36 | 54.96469 | 8.24068 | 1919 ft | 92 kts | 95° |
| 2026-05-05 13:36 | 54.96053 | 8.24966 | 1992 ft | 104 kts | 146° |
| 2026-05-05 13:37 | 54.95461 | 8.25474 | 1943 ft | 86 kts | 153° |
| 2026-05-05 13:37 | 54.94978 | 8.25768 | 1926 ft | 65 kts | 154° |
| 2026-05-05 13:37 | 54.94571 | 8.26027 | 1778 ft | 64 kts | 153° |
| 2026-05-05 13:37 | 54.94197 | 8.26394 | 1568 ft | 67 kts | 127° |
| 2026-05-05 13:38 | 54.93874 | 8.26913 | 1447 ft | 64 kts | 134° |
| 2026-05-05 13:38 | 54.93538 | 8.27375 | 1315 ft | 61 kts | 136° |
| 2026-05-05 13:38 | 54.93139 | 8.28023 | 1157 ft | 93 kts | 135° |
| 2026-05-05 13:38 | 54.92526 | 8.28421 | 1256 ft | 107 kts | 173° |
| 2026-05-05 13:39 | 54.91814 | 8.28184 | 1475 ft | 109 kts | 209° |
| 2026-05-05 13:39 | 54.91436 | 8.27110 | 1612 ft | 110 kts | 277° |
| 2026-05-05 13:39 | 54.91410 | 8.25909 | 1955 ft | 95 kts | 281° |
| 2026-05-05 13:39 | 54.91536 | 8.24792 | 2244 ft | 87 kts | 309° |
| 2026-05-05 13:40 | 54.92019 | 8.24333 | 2462 ft | 87 kts | 342° |
| 2026-05-05 13:40 | 54.92610 | 8.23805 | 2504 ft | 107 kts | 334° |
| 2026-05-05 13:40 | 54.93244 | 8.23156 | 2601 ft | 103 kts | 328° |
| 2026-05-05 13:40 | 54.93775 | 8.22511 | 2553 ft | 84 kts | 336° |
| 2026-05-05 13:41 | 54.94240 | 8.22119 | 2506 ft | 64 kts | 347° |
| 2026-05-05 13:41 | 54.94572 | 8.21891 | 2453 ft | 49 kts | 348° |
| 2026-05-05 13:41 | 54.94862 | 8.21256 | 2192 ft | 65 kts | 315° |
| 2026-05-05 13:41 | 54.95084 | 8.20646 | 2114 ft | 53 kts | 318° |
| 2026-05-05 13:42 | 54.95303 | 8.20128 | 1961 ft | 53 kts | 320° |
| 2026-05-05 13:42 | 54.95364 | 8.20262 | 1103 ft | 112 kts | 83° |
| 2026-05-05 13:42 | 54.95366 | 8.21085 | 1171 ft | 104 kts | 83° |
| 2026-05-05 13:42 | 54.95314 | 8.22312 | 1306 ft | 112 kts | 99° |
| 2026-05-05 13:43 | 54.94949 | 8.23534 | 1512 ft | 117 kts | 116° |
| 2026-05-05 13:43 | 54.94538 | 8.24792 | 1653 ft | 124 kts | 117° |
| 2026-05-05 13:43 | 54.94014 | 8.25976 | 1782 ft | 130 kts | 123° |
| 2026-05-05 13:43 | 54.93457 | 8.27217 | 1932 ft | 131 kts | 122° |
| 2026-05-05 13:44 | 54.92928 | 8.28445 | 1963 ft | 137 kts | 121° |
| 2026-05-05 13:44 | 54.92485 | 8.29542 | 1950 ft | 141 kts | 121° |
| 2026-05-05 13:44 | 54.91791 | 8.30651 | 1858 ft | 125 kts | 142° |
| 2026-05-05 13:44 | 54.91019 | 8.31506 | 1456 ft | 124 kts | 143° |
| 2026-05-05 13:45 | 54.90303 | 8.32344 | 1102 ft | 120 kts | 139° |
| 2026-05-05 13:45 | 54.89795 | 8.33394 | 857 ft | 105 kts | 107° |
| 2026-05-05 13:45 | 54.89803 | 8.34502 | 530 ft | 88 kts | 62° |
| 2026-05-05 13:45 | 54.90179 | 8.35252 | 249 ft | 71 kts | 358° |
| 2026-05-05 13:46 | 54.90622 | 8.34902 | 31 ft | 60 kts | 323° |
| 2026-05-05 13:46 | 54.90898 | 8.34577 | 28 ft | 33 kts | 322° |
| 2026-05-05 13:46 | 54.91076 | 8.34354 | 26 ft | 25 kts | 323° |
| 2026-05-05 13:46 | 54.91206 | 8.34195 | 26 ft | 19 kts | 323° |
| 2026-05-05 13:47 | 54.91307 | 8.34045 | 26 ft | 17 kts | 287° |
| 2026-05-05 13:47 | 54.91251 | 8.33828 | 26 ft | 24 kts | 239° |
| 2026-05-05 13:47 | 54.91161 | 8.33559 | 23 ft | 24 kts | 238° |
| 2026-05-05 13:47 | 54.91075 | 8.33314 | 26 ft | 19 kts | 240° |
| 2026-05-05 13:48 | 54.91007 | 8.33113 | 26 ft | 16 kts | 245° |
| 2026-05-05 13:48 | 54.91036 | 8.32950 | 25 ft | 12 kts | 314° |
| 2026-05-05 13:48 | 54.91090 | 8.32846 | 24 ft | 9 kts | 311° |
| 2026-05-05 13:48 | 54.91151 | 8.32724 | 23 ft | 20 kts | 311° |
| 2026-05-05 13:49 | 54.91217 | 8.32604 | 23 ft | 9 kts | 320° |
| 2026-05-05 13:49 | 54.91269 | 8.32553 | 23 ft | 7 kts | 337° |
| 2026-05-05 13:49 | 54.91319 | 8.32519 | 23 ft | 7 kts | 340° |
| 2026-05-05 13:49 | 54.91368 | 8.32507 | 22 ft | 5 kts | 37° |
| 2026-05-05 13:50 | 54.91366 | 8.32536 | 22 ft | 1 kts | 200° |
| 2026-05-05 13:50 | 54.91361 | 8.32519 | 22 ft | 0 kts | 256° |